createdAt,value
2017-09-15T00:01:16.732Z,100464.65
2017-09-15T00:03:49.590Z,100462.47
2017-09-15T00:06:26.321Z,100468.71
2017-09-15T00:09:00.109Z,100458.80
2017-09-15T00:11:31.545Z,100462.68
2017-09-15T00:14:05.804Z,100461.22
2017-09-15T00:16:39.566Z,100461.13
2017-09-15T00:19:17.560Z,100458.88
2017-09-15T00:21:50.956Z,100455.77
2017-09-15T00:24:25.556Z,100463.26
2017-09-15T00:26:57.193Z,100458.92
2017-09-15T00:29:31.508Z,100450.94
2017-09-15T00:32:09.765Z,100454.59
2017-09-15T00:34:43.351Z,100455.72
2017-09-15T00:37:16.385Z,100454.97
2017-09-15T00:39:51.761Z,100452.97
2017-09-15T00:42:25.483Z,100462.84
2017-09-15T00:45:00.131Z,100464.33
2017-09-15T00:47:34.345Z,100458.08
2017-09-15T00:50:07.132Z,100461.41
2017-09-15T00:52:40.966Z,100466.05
2017-09-15T00:55:15.679Z,100464.44
2017-09-15T00:57:47.025Z,100469.34
2017-09-15T01:00:23.721Z,100469.05
2017-09-15T01:02:54.986Z,100478.59
2017-09-15T01:05:26.744Z,100479.75
2017-09-15T01:07:58.028Z,100477.61
2017-09-15T01:10:29.367Z,100486.49
2017-09-15T01:13:01.431Z,100492.06
2017-09-15T01:15:32.709Z,100486.79
2017-09-15T01:18:04.973Z,100485.91
2017-09-15T01:20:36.404Z,100489.42
2017-09-15T01:23:11.007Z,100489.92
2017-09-15T01:25:42.414Z,100491.56
2017-09-15T01:28:18.398Z,100499.01
2017-09-15T01:30:51.498Z,100496.20
2017-09-15T01:33:23.627Z,100487.48
2017-09-15T01:35:54.849Z,100493.66
2017-09-15T01:38:27.247Z,100494.63
2017-09-15T01:40:58.773Z,100485.64
2017-09-15T01:43:30.533Z,100492.13
2017-09-15T01:46:04.067Z,100496.89
2017-09-15T01:48:35.630Z,100502.91
2017-09-15T01:51:06.710Z,100489.72
2017-09-15T01:53:37.899Z,100490.20
2017-09-15T01:56:09.317Z,100491.34
2017-09-15T01:58:41.352Z,100490.98
2017-09-15T02:01:15.274Z,100490.14
2017-09-15T02:03:46.673Z,100488.55
2017-09-15T02:06:18.130Z,100478.98
2017-09-15T02:08:49.540Z,100481.09
2017-09-15T02:11:21.967Z,100475.34
2017-09-15T02:13:53.443Z,100475.29
2017-09-15T02:16:26.342Z,100469.89
2017-09-15T02:18:57.721Z,100475.29
2017-09-15T02:21:28.778Z,100478.98
2017-09-15T02:23:59.839Z,100482.44
2017-09-15T02:26:31.323Z,100479.31
2017-09-15T02:29:03.979Z,100486.55
2017-09-15T02:31:35.199Z,100483.27
2017-09-15T02:34:10.038Z,100477.99
2017-09-15T02:36:41.595Z,100475.81
2017-09-15T02:39:14.244Z,100466.17
2017-09-15T02:41:46.309Z,100468.02
2017-09-15T02:44:20.360Z,100470.39
2017-09-15T02:46:51.936Z,100467.96
2017-09-15T02:49:24.565Z,100472.45
2017-09-15T02:51:56.045Z,100475.45
2017-09-15T02:54:27.922Z,100467.79
2017-09-15T02:57:15.835Z,100465.03
2017-09-15T02:59:49.780Z,100464.37
2017-09-15T03:02:21.270Z,100465.06
2017-09-15T03:04:52.886Z,100466.75
2017-09-15T03:07:24.871Z,100465.73
2017-09-15T03:09:56.333Z,100459.93
2017-09-15T03:12:27.636Z,100458.05
2017-09-15T03:14:59.030Z,100464.24
2017-09-15T03:17:30.810Z,100463.36
2017-09-15T03:20:03.922Z,100467.20
2017-09-15T03:22:35.443Z,100464.63
2017-09-15T03:25:06.617Z,100463.16
2017-09-15T03:27:37.671Z,100463.41
2017-09-15T03:30:11.418Z,100458.41
2017-09-15T03:32:42.953Z,100461.92
2017-09-15T03:35:16.669Z,100460.28
2017-09-15T03:37:48.946Z,100462.50
2017-09-15T03:40:22.580Z,100459.41
2017-09-15T03:42:53.769Z,100463.03
2017-09-15T03:45:27.986Z,100454.84
2017-09-15T03:47:59.532Z,100453.95
2017-09-15T03:50:31.967Z,100455.97
2017-09-15T03:53:04.710Z,100458.06
2017-09-15T03:55:36.146Z,100456.70
2017-09-15T03:58:07.971Z,100451.09
2017-09-15T04:00:39.110Z,100450.94
2017-09-15T04:03:10.943Z,100444.80
2017-09-15T04:05:42.122Z,100450.70
2017-09-15T04:08:16.369Z,100445.72
2017-09-15T04:13:54.215Z,100452.81
2017-09-15T04:16:27.199Z,100443.50
2017-09-15T04:18:58.841Z,100445.94
2017-09-15T04:21:31.269Z,100444.10
2017-09-15T04:24:06.259Z,100444.50
2017-09-15T04:26:38.748Z,100449.76
2017-09-15T04:29:12.216Z,100455.56
2017-09-15T04:31:46.792Z,100450.48
2017-09-15T04:34:20.285Z,100455.98
2017-09-15T04:36:51.711Z,100452.67
2017-09-15T04:39:24.022Z,100457.11
2017-09-15T04:41:55.175Z,100449.00
2017-09-15T05:02:45.062Z,100435.44
2017-09-15T05:05:18.349Z,100439.47
2017-09-15T05:07:52.029Z,100436.75
2017-09-15T05:10:24.346Z,100444.48
2017-09-15T05:12:55.630Z,100450.58
2017-09-15T05:15:28.880Z,100451.87
2017-09-15T05:18:00.158Z,100448.19
2017-09-15T05:20:31.286Z,100446.38
2017-09-15T05:23:02.592Z,100442.54
2017-09-15T05:25:33.746Z,100444.13
2017-09-15T05:28:05.792Z,100445.67
2017-09-15T05:30:36.913Z,100448.80
2017-09-15T05:33:08.130Z,100442.52
2017-09-15T05:35:39.549Z,100446.41
2017-09-15T05:38:10.633Z,100438.73
2017-09-15T05:40:41.805Z,100426.59
2017-09-15T05:43:17.761Z,100432.19
2017-09-15T05:45:48.931Z,100432.02
2017-09-15T05:48:20.266Z,100440.12
2017-09-15T05:50:51.339Z,100443.18
2017-09-15T05:53:23.182Z,100438.96
2017-09-15T05:55:54.558Z,100435.17
2017-09-15T05:58:26.559Z,100431.16
2017-09-15T06:00:57.998Z,100424.38
2017-09-15T06:03:30.240Z,100426.22
2017-09-15T06:06:01.882Z,100417.09
2017-09-15T06:08:33.317Z,100413.08
2017-09-15T06:11:05.666Z,100406.63
2017-09-15T06:13:37.095Z,100415.19
2017-09-15T06:16:08.300Z,100416.97
2017-09-15T06:18:39.386Z,100415.53
2017-09-15T06:21:10.800Z,100417.00
2017-09-15T06:23:41.893Z,100416.16
2017-09-15T06:26:13.411Z,100421.75
2017-09-15T06:28:44.830Z,100412.64
2017-09-15T06:31:15.929Z,100412.75
2017-09-15T06:33:47.131Z,100406.83
2017-09-15T06:36:18.324Z,100403.55
2017-09-15T06:38:50.763Z,100399.98
2017-09-15T06:41:22.680Z,100400.78
2017-09-15T06:43:53.941Z,100402.49
2017-09-15T06:46:27.710Z,100392.20
2017-09-15T06:49:00.690Z,100392.19
2017-09-15T06:51:31.888Z,100390.55
2017-09-15T06:54:05.011Z,100392.72
2017-09-15T06:56:36.835Z,100385.77
2017-09-15T06:59:08.236Z,100383.23
2017-09-15T07:01:39.417Z,100374.89
2017-09-15T07:04:10.646Z,100370.89
2017-09-15T07:06:42.290Z,100370.77
2017-09-15T07:09:13.786Z,100375.28
2017-09-15T07:11:44.892Z,100372.44
2017-09-15T07:14:16.568Z,100367.14
2017-09-15T07:16:48.055Z,100375.61
2017-09-15T07:19:19.218Z,100377.39
2017-09-15T07:21:50.338Z,100377.30
2017-09-15T07:24:21.542Z,100377.45
2017-09-15T07:26:53.157Z,100384.50
2017-09-15T07:29:24.797Z,100395.16
2017-09-15T07:31:56.149Z,100405.23
2017-09-15T07:34:30.027Z,100402.17
2017-09-15T07:37:13.409Z,100403.37
2017-09-15T07:39:44.909Z,100406.92
2017-09-15T07:42:16.061Z,100409.86
2017-09-15T07:44:50.074Z,100409.38
2017-09-15T07:47:21.545Z,100400.00
2017-09-15T07:49:54.070Z,100396.17
2017-09-15T07:52:28.121Z,100401.27
2017-09-15T07:54:59.277Z,100400.59
2017-09-15T07:57:30.998Z,100404.74
2017-09-15T08:00:03.644Z,100398.11
2017-09-15T08:02:34.738Z,100402.59
2017-09-15T08:05:06.111Z,100395.20
2017-09-15T08:07:37.403Z,100389.22
2017-09-15T08:10:08.703Z,100382.86
2017-09-15T08:12:41.749Z,100382.69
2017-09-15T08:15:12.948Z,100376.73
2017-09-15T08:17:44.247Z,100384.40
2017-09-15T08:20:15.726Z,100383.20
2017-09-15T08:22:46.854Z,100374.38
2017-09-15T08:25:18.426Z,100377.05
2017-09-15T08:30:55.177Z,100372.28
2017-09-15T08:33:26.473Z,100373.95
2017-09-15T08:35:59.342Z,100372.02
2017-09-15T08:38:30.495Z,100373.48
2017-09-15T08:41:03.902Z,100360.84
2017-09-15T08:43:45.417Z,100357.38
2017-09-15T08:46:18.684Z,100360.70
2017-09-15T08:48:50.167Z,100358.11
2017-09-15T08:51:23.158Z,100356.31
2017-09-15T08:53:54.487Z,100351.36
2017-09-15T08:59:31.380Z,100358.44
2017-09-15T09:04:58.369Z,100354.79
2017-09-15T09:10:35.528Z,100343.06
2017-09-15T09:16:07.341Z,100350.62
2017-09-15T09:29:20.640Z,100345.73
2017-09-15T12:35:49.378Z,100235.17
2017-09-15T15:46:53.603Z,100150.67
2017-09-15T15:49:28.644Z,100141.77
2017-09-15T15:55:31.062Z,100142.55
2017-09-15T15:58:13.651Z,100149.72
2017-09-15T16:01:12.739Z,100156.59
2017-09-15T16:05:30.770Z,100161.70
2017-09-15T16:14:35.934Z,100149.55
2017-09-15T16:17:18.167Z,100144.60
2017-09-15T16:19:58.892Z,100138.22
2017-09-15T16:22:32.766Z,100138.43
2017-09-15T16:25:17.580Z,100133.91
2017-09-15T16:27:57.758Z,100129.44
2017-09-15T16:30:38.788Z,100133.53
2017-09-15T16:33:18.319Z,100136.45
2017-09-15T18:27:08.728Z,100228.54
2017-09-15T18:32:40.896Z,100239.97
2017-09-15T18:38:29.008Z,100235.78
2017-09-15T18:47:14.994Z,100236.38
2017-09-15T18:49:58.229Z,100235.59
2017-09-15T18:52:38.707Z,100238.47
2017-09-15T18:55:27.978Z,100238.70
2017-09-15T19:04:21.519Z,100243.77
2017-09-15T19:07:02.141Z,100239.42
2017-09-15T19:09:47.677Z,100240.08
2017-09-15T19:12:22.558Z,100232.82
2017-09-15T19:14:59.961Z,100230.13
2017-09-15T19:20:39.118Z,100230.81
2017-09-15T19:23:37.086Z,100227.01
2017-09-15T19:26:30.948Z,100223.95
2017-09-15T19:29:07.698Z,100217.73
2017-09-15T19:37:37.513Z,100205.48
2017-09-15T19:40:15.065Z,100196.71
2017-09-15T19:42:47.818Z,100201.79
2017-09-15T19:45:22.473Z,100189.61
2017-09-15T19:57:11.103Z,100187.97
2017-09-15T19:59:49.552Z,100192.27
2017-09-15T20:19:05.806Z,100205.38
2017-09-15T20:25:34.630Z,100219.59
2017-09-15T20:28:07.779Z,100223.30
2017-09-15T20:37:04.470Z,100226.52
2017-09-15T20:39:39.898Z,100222.38
2017-09-15T20:42:14.980Z,100222.30
2017-09-15T20:44:58.650Z,100225.45
2017-09-15T20:47:30.484Z,100229.45
2017-09-15T20:50:04.069Z,100222.05
2017-09-15T20:52:35.923Z,100229.31
2017-09-15T20:55:07.527Z,100220.37
2017-09-15T20:57:45.092Z,100217.28
2017-09-15T21:00:16.562Z,100217.47
2017-09-15T21:02:53.491Z,100218.81
2017-09-15T21:05:25.814Z,100219.34
2017-09-15T21:08:00.233Z,100212.73
2017-09-15T21:10:31.819Z,100207.64
2017-09-15T21:13:05.703Z,100212.22
2017-09-15T21:15:37.637Z,100211.97
2017-09-15T21:18:11.369Z,100209.98
2017-09-15T21:20:49.205Z,100214.42
2017-09-15T21:23:22.773Z,100213.46
2017-09-15T21:25:54.141Z,100209.79
2017-09-15T21:31:28.361Z,100215.72
2017-09-15T21:33:59.738Z,100215.41
2017-09-15T21:36:32.295Z,100218.85
2017-09-15T21:39:04.228Z,100220.34
2017-09-15T21:41:35.693Z,100215.78
2017-09-15T21:44:07.335Z,100220.81
2017-09-15T21:46:55.272Z,100218.67
2017-09-15T21:49:42.860Z,100226.24
2017-09-15T21:52:15.331Z,100220.23
2017-09-15T21:54:46.779Z,100219.90
2017-09-15T22:00:17.196Z,100229.05
2017-09-15T22:09:25.314Z,100222.63
2017-09-15T22:11:56.665Z,100228.36
2017-09-15T22:17:24.005Z,100225.73
2017-09-15T22:19:55.366Z,100228.16
2017-09-15T22:22:28.738Z,100228.92
2017-09-15T22:25:00.762Z,100225.87
2017-09-15T22:27:33.347Z,100218.94
2017-09-15T22:30:06.608Z,100223.96
2017-09-15T22:32:44.027Z,100220.97
2017-09-15T22:38:34.211Z,100218.58
2017-09-15T22:41:11.334Z,100216.41
2017-09-15T22:46:43.778Z,100213.02
2017-09-15T22:55:06.973Z,100206.25
